Time;durP1;ratioP1;P1;durP2;ratioP2;P2;SDS_P1;SDS_P2;PMS_P1;PMS_P2;Temp;Humidity;BMP_temperature;BMP_pressure;BME280_temperature;BME280_humidity;BME280_pressure;Samples;Min_cycle;Max_cycle;Signal;HPM_P1;HPM_P2
2022/08/08 00:00:20;;;;;;;956.33;869.55;;;21.60;90.90;;;;;;4983948;28;20204;-86
2022/08/08 00:02:57;;;;;;;950.65;864.25;;;21.60;90.90;;;;;;4988186;28;20217;-90
2022/08/08 00:05:30;;;;;;;955.45;868.60;;;21.60;90.90;;;;;;4991850;28;20220;-89
2022/08/08 00:08:04;;;;;;;964.30;877.45;;;21.60;91.10;;;;;;4991480;28;20200;-88
2022/08/08 00:10:41;;;;;;;946.50;859.95;;;21.50;91.10;;;;;;4990756;28;20671;-90
2022/08/08 00:13:14;;;;;;;945.30;858.80;;;21.50;91.10;;;;;;4984292;28;20234;-91
2022/08/08 00:15:46;;;;;;;959.05;872.38;;;21.50;91.20;;;;;;4984481;28;20193;-89
2022/08/08 00:18:20;;;;;;;974.90;887.58;;;21.50;91.20;;;;;;4998210;28;20273;-90
2022/08/08 00:20:51;;;;;;;970.90;883.70;;;21.50;91.20;;;;;;4993926;28;20694;-92
2022/08/08 00:23:25;;;;;;;953.70;867.05;;;21.50;91.30;;;;;;4996795;28;20231;-90
2022/08/08 00:25:57;;;;;;;950.22;863.78;;;21.50;91.40;;;;;;4992596;28;20224;-90
2022/08/08 00:28:29;;;;;;;960.38;873.35;;;21.40;91.30;;;;;;5002358;28;20203;-90
2022/08/08 00:30:58;;;;;;;950.05;863.47;;;21.40;91.40;;;;;;4989109;28;20220;-91
2022/08/08 00:33:32;;;;;;;948.97;862.38;;;21.40;91.40;;;;;;4995684;28;20189;-90
2022/08/08 00:36:08;;;;;;;959.35;872.45;;;21.40;91.50;;;;;;5008114;28;20590;-90
2022/08/08 00:38:44;;;;;;;954.17;867.58;;;21.40;91.50;;;;;;4998600;28;20584;-92
2022/08/08 00:41:43;;;;;;;953.60;867.00;;;21.40;91.60;;;;;;4988250;28;20708;-91
2022/08/08 00:44:43;;;;;;;932.10;846.05;;;21.30;91.60;;;;;;4997757;28;20692;-88
2022/08/08 00:47:49;;;;;;;941.70;855.70;;;21.30;91.60;;;;;;4992262;28;20204;-91
2022/08/08 00:50:48;;;;;;;938.20;851.88;;;21.30;91.70;;;;;;4969269;28;20533;-89
2022/08/08 00:53:28;;;;;;;929.10;843.50;;;21.30;91.80;;;;;;4993968;28;20545;-91
2022/08/08 00:56:17;;;;;;;928.28;842.67;;;21.20;91.80;;;;;;4986060;28;20679;-89
2022/08/08 00:59:20;;;;;;;926.80;841.15;;;21.20;91.90;;;;;;4979748;28;20201;-90
2022/08/08 01:02:00;;;;;;;910.05;824.83;;;21.20;92.00;;;;;;4989327;28;20516;-89
2022/08/08 01:05:02;;;;;;;924.45;839.17;;;21.20;92.00;;;;;;4989614;28;20224;-89
2022/08/08 01:08:04;;;;;;;911.05;825.88;;;21.20;92.10;;;;;;4991763;28;20559;-88
2022/08/08 01:10:52;;;;;;;925.40;839.72;;;21.10;92.00;;;;;;4980070;28;20203;-90
2022/08/08 01:14:10;;;;;;;923.30;837.97;;;21.10;92.10;;;;;;4989007;28;20197;-88
2022/08/08 01:17:09;;;;;;;907.47;822.60;;;21.10;92.20;;;;;;4913992;29;20203;-88
2022/08/08 01:20:08;;;;;;;909.63;824.38;;;21.10;92.30;;;;;;4943108;28;20221;-91
2022/08/08 01:23:24;;;;;;;910.10;824.90;;;21.00;92.30;;;;;;4991308;28;20203;-90
2022/08/08 01:26:14;;;;;;;898.67;813.83;;;21.00;92.40;;;;;;4999811;28;20571;-87
2022/08/08 01:29:26;;;;;;;921.40;836.10;;;21.00;92.50;;;;;;4991700;28;20193;-90
2022/08/08 01:32:18;;;;;;;905.30;820.42;;;21.00;92.60;;;;;;5000552;28;20679;-90
2022/08/08 01:35:20;;;;;;;919.20;834.00;;;20.90;92.60;;;;;;4986478;28;20206;-90
2022/08/08 01:38:23;;;;;;;943.00;856.53;;;20.90;92.60;;;;;;5006783;28;20673;-89
2022/08/08 01:40:58;;;;;;;903.65;818.72;;;20.90;92.70;;;;;;4996971;28;20227;-92
2022/08/08 01:43:37;;;;;;;908.88;823.85;;;20.90;92.80;;;;;;4992939;28;20762;-92
2022/08/08 01:46:24;;;;;;;926.20;840.53;;;20.80;92.80;;;;;;4992990;28;20664;-93
2022/08/08 01:48:58;;;;;;;907.97;822.85;;;20.90;92.90;;;;;;4997916;28;20660;-84
2022/08/08 01:51:57;;;;;;;918.00;832.70;;;20.80;92.90;;;;;;4992235;28;20203;-89
2022/08/08 01:54:35;;;;;;;920.92;835.40;;;20.80;93.00;;;;;;4992498;28;20627;-89
2022/08/08 01:57:14;;;;;;;910.20;824.80;;;20.80;93.10;;;;;;4995318;28;20222;-91
2022/08/08 01:59:52;;;;;;;925.25;839.40;;;20.80;93.10;;;;;;5001146;28;20208;-91
2022/08/08 02:02:35;;;;;;;930.15;844.05;;;20.70;93.10;;;;;;4997208;28;20196;-90
2022/08/08 02:05:20;;;;;;;928.85;842.67;;;20.70;93.20;;;;;;4994238;28;20595;-89
2022/08/08 02:08:00;;;;;;;896.25;811.40;;;20.70;93.30;;;;;;4999861;28;20212;-90
2022/08/08 02:10:45;;;;;;;915.42;829.83;;;20.70;93.40;;;;;;4995053;28;20204;-91
2022/08/08 02:13:17;;;;;;;925.75;839.72;;;20.70;93.40;;;;;;4996550;28;20193;-91
2022/08/08 02:15:52;;;;;;;919.20;833.53;;;20.70;93.50;;;;;;5002594;28;20201;-91
2022/08/08 02:18:25;;;;;;;918.75;833.08;;;20.70;93.50;;;;;;4994308;28;20197;-91
2022/08/08 02:23:51;;;;;;;917.15;831.58;;;20.60;93.60;;;;;;4995435;28;20312;-91
2022/08/08 02:26:26;;;;;;;904.83;819.33;;;20.60;93.60;;;;;;4992445;28;20189;-90
2022/08/08 02:29:00;;;;;;;919.05;833.47;;;20.60;93.70;;;;;;4985508;28;20205;-91
2022/08/08 02:31:39;;;;;;;901.80;816.78;;;20.50;93.70;;;;;;4990518;28;20197;-89
2022/08/08 02:34:14;;;;;;;903.08;818.03;;;20.50;93.70;;;;;;4987677;28;20201;-90
2022/08/08 02:36:57;;;;;;;883.13;798.65;;;20.50;93.80;;;;;;4995772;28;20212;-89
2022/08/08 02:39:48;;;;;;;897.50;812.38;;;20.50;93.90;;;;;;4998527;28;20791;-83
2022/08/08 02:43:06;;;;;;;888.72;803.92;;;20.50;94.00;;;;;;4984384;28;20217;-89
2022/08/08 02:46:11;;;;;;;886.95;802.05;;;20.50;94.00;;;;;;4986041;28;20189;-89
2022/08/08 02:49:06;;;;;;;892.90;808.08;;;20.50;94.10;;;;;;4974290;28;20216;-91
2022/08/08 02:51:57;;;;;;;910.75;825.17;;;20.40;94.10;;;;;;4982882;28;20189;-91
2022/08/08 02:54:50;;;;;;;897.95;812.80;;;20.40;94.30;;;;;;4985578;28;20239;-88
2022/08/08 02:58:01;;;;;;;917.17;831.35;;;20.40;94.30;;;;;;4989879;28;20200;-88
2022/08/08 03:01:14;;;;;;;902.70;817.42;;;20.40;94.40;;;;;;4992307;28;20220;-84
2022/08/08 03:04:30;;;;;;;886.58;801.88;;;20.40;94.50;;;;;;4978545;28;20213;-84
2022/08/08 03:07:33;;;;;;;880.15;795.35;;;20.30;94.50;;;;;;4989809;28;20224;-83
2022/08/08 03:10:36;;;;;;;875.80;791.45;;;20.30;94.60;;;;;;4990262;28;20698;-84
2022/08/08 03:13:30;;;;;;;880.42;795.95;;;20.30;94.60;;;;;;4992459;28;20204;-82
2022/08/08 03:16:25;;;;;;;871.40;787.13;;;20.30;94.70;;;;;;4993351;28;20205;-81
2022/08/08 03:19:24;;;;;;;889.55;804.90;;;20.20;94.80;;;;;;4999628;28;20591;-82
2022/08/08 03:21:51;;;;;;;866.17;782.17;;;20.20;94.90;;;;;;4977072;28;20224;-82
2022/08/08 03:24:19;;;;;;;883.08;798.55;;;20.20;94.90;;;;;;4986613;28;20250;-82
2022/08/08 03:26:51;;;;;;;900.88;815.58;;;20.20;95.00;;;;;;4988542;28;20662;-82
2022/08/08 03:29:27;;;;;;;891.10;806.33;;;20.20;95.10;;;;;;4987287;28;20201;-83
2022/08/08 03:34:50;;;;;;;872.10;788.55;;;20.10;95.20;;;;;;4949616;28;20194;-84
2022/08/08 03:37:17;;;;;;;884.22;799.88;;;20.10;95.20;;;;;;4979365;28;20596;-83
2022/08/08 03:39:45;;;;;;;889.05;804.47;;;20.10;95.30;;;;;;4990228;28;20200;-85
2022/08/08 03:42:15;;;;;;;862.13;778.55;;;20.10;95.40;;;;;;4989194;28;20201;-83
2022/08/08 03:44:41;;;;;;;873.13;789.10;;;20.10;95.40;;;;;;4987053;28;20730;-83
2022/08/08 03:47:09;;;;;;;863.70;779.97;;;20.10;95.50;;;;;;4989195;28;20208;-83
2022/08/08 03:49:35;;;;;;;895.55;810.40;;;20.00;95.60;;;;;;4987286;28;20323;-84
2022/08/08 03:52:02;;;;;;;898.15;812.90;;;20.00;95.60;;;;;;4993549;28;20199;-84
2022/08/08 03:54:29;;;;;;;886.30;801.50;;;20.00;95.70;;;;;;4996537;28;20193;-84
2022/08/08 03:56:57;;;;;;;871.85;787.33;;;20.00;95.80;;;;;;4988469;28;20204;-84
2022/08/08 03:59:29;;;;;;;889.47;804.67;;;20.00;95.80;;;;;;4990240;28;20200;-84
2022/08/08 04:01:56;;;;;;;870.20;785.78;;;20.00;95.90;;;;;;5001945;28;20258;-84
2022/08/08 04:04:23;;;;;;;880.92;795.95;;;19.90;95.90;;;;;;4994154;28;20273;-84
2022/08/08 04:06:56;;;;;;;880.60;795.75;;;19.90;96.00;;;;;;4994546;28;20709;-84
2022/08/08 04:09:23;;;;;;;870.40;785.95;;;19.90;96.10;;;;;;5004202;28;20197;-83
2022/08/08 04:11:50;;;;;;;874.88;790.53;;;19.90;96.10;;;;;;5002963;28;20659;-84
2022/08/08 04:14:18;;;;;;;873.17;788.78;;;19.90;96.20;;;;;;4993960;28;20208;-85
2022/08/08 04:16:44;;;;;;;869.33;785.15;;;19.90;96.30;;;;;;4988810;28;20231;-84
2022/08/08 04:19:11;;;;;;;836.30;753.22;;;19.80;96.30;;;;;;4995382;28;20223;-84
2022/08/08 04:21:38;;;;;;;863.88;780.00;;;19.80;96.30;;;;;;5004275;28;20686;-84
2022/08/08 04:24:05;;;;;;;858.55;774.33;;;19.80;96.40;;;;;;4997619;28;20232;-84
2022/08/08 04:26:32;;;;;;;849.25;765.83;;;19.80;96.50;;;;;;4992321;28;20208;-84
2022/08/08 04:28:59;;;;;;;886.97;802.42;;;19.80;96.50;;;;;;4993857;28;20213;-84
2022/08/08 04:31:27;;;;;;;875.67;791.03;;;19.80;96.70;;;;;;4989977;28;20213;-83
2022/08/08 04:33:53;;;;;;;882.05;797.25;;;19.80;96.70;;;;;;4992040;28;20196;-84
2022/08/08 04:36:20;;;;;;;869.78;785.60;;;19.80;96.80;;;;;;4989206;28;20197;-84
2022/08/08 04:38:47;;;;;;;882.53;797.63;;;19.80;96.90;;;;;;4998349;28;20189;-84
2022/08/08 04:41:14;;;;;;;871.63;787.15;;;19.80;96.90;;;;;;4997622;28;20228;-84
2022/08/08 04:43:41;;;;;;;866.75;782.35;;;19.70;96.90;;;;;;4989706;28;20210;-84
2022/08/08 04:46:08;;;;;;;868.53;783.78;;;19.70;97.00;;;;;;4998733;28;20569;-84
2022/08/08 04:48:36;;;;;;;884.25;799.42;;;19.70;97.10;;;;;;4996780;28;20211;-84
2022/08/08 04:51:03;;;;;;;860.55;776.40;;;19.70;97.10;;;;;;4993272;28;20219;-82
2022/08/08 04:53:29;;;;;;;860.60;776.53;;;19.70;97.20;;;;;;4994909;28;20211;-84
2022/08/08 04:55:56;;;;;;;853.20;769.45;;;19.70;97.30;;;;;;4994500;28;20212;-83
2022/08/08 04:58:23;;;;;;;855.72;771.63;;;19.70;97.30;;;;;;4982914;28;20215;-83
2022/08/08 05:00:50;;;;;;;849.70;766.05;;;19.70;97.50;;;;;;4993712;28;20215;-84
2022/08/08 05:03:17;;;;;;;849.95;766.08;;;19.70;97.50;;;;;;4982184;28;20204;-83
2022/08/08 05:05:45;;;;;;;857.33;773.20;;;19.60;97.50;;;;;;4993833;28;20690;-84
2022/08/08 05:08:12;;;;;;;863.72;779.25;;;19.70;97.60;;;;;;4996965;28;20196;-83
2022/08/08 05:10:39;;;;;;;865.67;781.15;;;19.70;97.70;;;;;;4998846;28;20709;-83
2022/08/08 05:13:06;;;;;;;871.80;787.13;;;19.60;97.70;;;;;;4990217;28;20756;-84
2022/08/08 05:15:32;;;;;;;867.80;783.47;;;19.60;97.80;;;;;;4999256;28;20222;-83
2022/08/08 05:17:59;;;;;;;853.80;770.00;;;19.60;97.80;;;;;;4991507;28;20208;-83
2022/08/08 05:20:26;;;;;;;855.75;772.08;;;19.60;97.90;;;;;;4987768;28;20233;-84
2022/08/08 05:22:54;;;;;;;856.13;772.47;;;19.60;97.90;;;;;;4990350;28;20204;-84
2022/08/08 05:25:21;;;;;;;853.42;769.92;;;19.60;98.00;;;;;;5002054;28;20682;-84
2022/08/08 05:27:47;;;;;;;860.97;777.00;;;19.60;98.00;;;;;;4989729;28;20199;-84
2022/08/08 05:30:14;;;;;;;862.55;778.67;;;19.60;98.40;;;;;;4984667;28;20212;-83
2022/08/08 05:32:41;;;;;;;862.22;778.35;;;19.60;98.10;;;;;;4993236;28;20560;-85
2022/08/08 05:35:09;;;;;;;854.67;770.90;;;19.60;98.20;;;;;;4997690;28;20192;-84
2022/08/08 05:37:38;;;;;;;847.85;764.58;;;19.60;98.20;;;;;;4979085;28;20208;-84
2022/08/08 05:40:08;;;;;;;859.55;775.95;;;19.60;98.30;;;;;;4984091;28;20615;-85
2022/08/08 05:42:39;;;;;;;850.78;766.90;;;19.60;98.20;;;;;;4994497;28;20656;-84
2022/08/08 05:45:08;;;;;;;864.30;780.05;;;19.70;98.00;;;;;;4985067;28;20481;-84
2022/08/08 05:47:36;;;;;;;863.50;779.50;;;19.80;97.90;;;;;;4993314;28;20284;-84
2022/08/08 05:50:05;;;;;;;858.40;774.72;;;20.00;97.60;;;;;;4987745;28;20920;-83
2022/08/08 05:52:33;;;;;;;873.53;789.53;;;20.20;97.20;;;;;;4992371;28;20295;-82
2022/08/08 05:55:00;;;;;;;878.83;794.40;;;20.50;96.70;;;;;;4982894;28;20204;-81
2022/08/08 05:57:31;;;;;;;903.45;818.47;;;20.70;96.10;;;;;;4984068;28;20664;-81
2022/08/08 05:59:59;;;;;;;912.10;826.60;;;20.90;95.60;;;;;;4985787;28;20197;-81
2022/08/08 06:05:14;;;;;;;909.50;824.53;;;21.30;94.60;;;;;;4979123;28;20659;-82
2022/08/08 06:07:41;;;;;;;930.30;844.63;;;21.50;94.10;;;;;;4993195;28;20629;-82
2022/08/08 06:10:09;;;;;;;941.50;855.45;;;21.70;93.60;;;;;;4990710;28;20207;-82
2022/08/08 06:12:38;;;;;;;943.30;857.42;;;21.90;93.20;;;;;;4984112;28;20734;-81
2022/08/08 06:15:06;;;;;;;957.05;870.58;;;22.10;92.80;;;;;;4988353;28;20193;-82
2022/08/08 06:17:34;;;;;;;979.50;892.38;;;22.20;92.50;;;;;;4990538;28;20196;-81
2022/08/08 06:20:02;;;;;;;968.28;881.40;;;22.30;92.10;;;;;;4995125;28;20228;-80
2022/08/08 06:22:29;;;;;;;979.85;892.60;;;22.40;91.80;;;;;;4995801;28;20209;-81
2022/08/08 06:24:56;;;;;;;971.47;884.83;;;22.50;91.60;;;;;;4998696;28;20530;-81
2022/08/08 06:27:36;;;;;;;985.38;898.05;;;22.60;91.40;;;;;;4997501;28;20192;-80
2022/08/08 06:30:06;;;;;;;1000.30;912.33;;;22.70;91.10;;;;;;4991283;28;20206;-81
2022/08/08 06:32:41;;;;;;;1009.90;922.00;;;22.70;90.90;;;;;;4990401;28;20634;-81
2022/08/08 06:35:11;;;;;;;994.25;906.80;;;22.80;90.70;;;;;;4988120;28;20196;-81
2022/08/08 06:37:43;;;;;;;1002.70;914.80;;;22.90;90.60;;;;;;4999408;28;20661;-81
2022/08/08 06:40:13;;;;;;;999.97;912.22;;;23.00;90.50;;;;;;4990980;28;20241;-82
2022/08/08 06:42:43;;;;;;;1000.85;913.22;;;23.10;90.30;;;;;;4988354;28;20541;-82
2022/08/08 06:45:13;;;;;;;999.53;911.58;;;23.20;90.10;;;;;;4995663;28;20217;-83
2022/08/08 06:47:40;;;;;;;1025.50;936.63;;;23.20;89.80;;;;;;4986651;28;20204;-81
2022/08/08 06:50:09;;;;;;;1030.32;941.25;;;23.40;89.40;;;;;;4989461;28;20275;-81
2022/08/08 06:52:36;;;;;;;1026.50;937.67;;;23.50;89.00;;;;;;4995869;28;20197;-81
2022/08/08 06:55:05;;;;;;;1041.47;952.15;;;23.60;88.60;;;;;;5005331;28;20197;-82
2022/08/08 06:57:32;;;;;;;1032.68;944.00;;;23.70;88.20;;;;;;4989643;28;20233;-81
2022/08/08 06:59:59;;;;;;;1027.65;939.00;;;23.70;87.80;;;;;;4986963;28;20199;-83
2022/08/08 07:02:31;;;;;;;1031.50;942.75;;;23.80;87.40;;;;;;4990143;28;20201;-84
2022/08/08 07:05:04;;;;;;;1047.80;958.75;;;23.90;87.20;;;;;;4987067;28;20227;-81
2022/08/08 07:07:41;;;;;;;1025.32;937.05;;;23.90;87.00;;;;;;4992215;28;20839;-85
2022/08/08 07:10:10;;;;;;;1028.85;940.33;;;23.90;86.70;;;;;;4993272;28;20207;-83
2022/08/08 07:12:40;;;;;;;1038.32;949.17;;;24.00;86.50;;;;;;4992840;28;20227;-86
2022/08/08 07:15:10;;;;;;;1051.78;962.55;;;24.10;86.20;;;;;;4999596;28;20208;-84
2022/08/08 07:17:46;;;;;;;1041.65;952.50;;;24.20;85.90;;;;;;4984344;28;20205;-84
2022/08/08 07:20:18;;;;;;;1054.00;964.53;;;24.30;85.70;;;;;;4995041;28;20412;-84
2022/08/08 07:22:58;;;;;;;1055.18;965.67;;;24.30;85.30;;;;;;4997818;28;20929;-83
2022/08/08 07:25:25;;;;;;;1050.28;961.03;;;24.40;85.00;;;;;;4989054;28;21524;-83
2022/08/08 07:28:03;;;;;;;1055.05;965.80;;;24.40;84.60;;;;;;4990831;28;20213;-82
2022/08/08 07:30:30;;;;;;;1054.47;964.97;;;24.50;84.50;;;;;;4988198;28;20201;-81
2022/08/08 07:33:00;;;;;;;1061.10;971.10;;;24.60;84.20;;;;;;4989660;28;20452;-83
2022/08/08 07:35:28;;;;;;;1055.60;965.83;;;24.60;84.00;;;;;;4993496;28;20459;-83
2022/08/08 07:37:57;;;;;;;1062.78;972.83;;;24.70;83.70;;;;;;4990454;28;20683;-84
2022/08/08 07:40:25;;;;;;;1064.65;974.47;;;24.70;83.50;;;;;;4990468;28;20599;-86
2022/08/08 07:42:53;;;;;;;1073.07;982.77;;;24.80;83.40;;;;;;4987737;28;20208;-81
2022/08/08 07:45:20;;;;;;;1068.90;978.65;;;24.90;83.20;;;;;;4982108;28;20503;-83
2022/08/08 07:47:47;;;;;;;1069.35;979.03;;;24.90;83.70;;;;;;4991685;28;20694;-84
2022/08/08 07:50:16;;;;;;;1069.57;979.50;;;25.10;80.50;;;;;;4989059;28;20204;-85
2022/08/08 07:52:47;;;;;;;1068.90;978.80;;;25.20;79.70;;;;;;4990580;28;20671;-85
2022/08/08 07:55:19;;;;;;;1062.13;971.95;;;25.00;80.70;;;;;;4997279;28;20456;-85
2022/08/08 07:57:51;;;;;;;1080.47;989.83;;;25.00;81.30;;;;;;4990880;28;20676;-84
2022/08/08 08:00:18;;;;;;;1069.78;979.67;;;25.00;81.50;;;;;;4987927;28;20205;-82
2022/08/08 08:02:53;;;;;;;1067.87;977.90;;;25.10;81.30;;;;;;4988972;28;20290;-83
2022/08/08 08:05:25;;;;;;;1086.57;994.90;;;25.20;81.20;;;;;;4986453;28;21024;-82
2022/08/08 08:07:55;;;;;;;1082.20;991.60;;;25.20;80.90;;;;;;4990840;28;20460;-84
2022/08/08 08:10:27;;;;;;;1101.90;999.90;;;25.30;80.70;;;;;;4989357;28;20450;-84
2022/08/08 08:13:19;;;;;;;1104.30;999.90;;;25.40;81.30;;;;;;4987533;28;20201;-83
2022/08/08 08:15:48;;;;;;;1095.03;998.73;;;25.40;80.40;;;;;;4989623;28;20480;-83
2022/08/08 08:18:17;;;;;;;1088.80;995.53;;;25.40;80.30;;;;;;4982453;28;20453;-81
2022/08/08 08:20:45;;;;;;;1110.47;999.90;;;25.50;80.30;;;;;;4987475;28;20463;-81
2022/08/08 08:23:12;;;;;;;1105.30;999.90;;;25.50;80.10;;;;;;4997179;28;20434;-81
2022/08/08 08:25:38;;;;;;;1113.40;999.90;;;25.60;79.90;;;;;;4989844;28;20820;-82
2022/08/08 08:28:05;;;;;;;1104.60;999.90;;;25.60;79.70;;;;;;4990087;28;20464;-82
2022/08/08 08:30:32;;;;;;;1091.17;996.60;;;25.70;79.90;;;;;;4982734;28;20445;-81
2022/08/08 08:32:59;;;;;;;1100.17;999.90;;;25.70;79.70;;;;;;4985590;28;20431;-81
2022/08/08 08:35:25;;;;;;;1116.95;999.90;;;25.70;79.40;;;;;;4996610;28;20857;-80
2022/08/08 08:37:54;;;;;;;1116.73;999.90;;;25.70;79.50;;;;;;4986295;28;20205;-81
2022/08/08 08:40:21;;;;;;;1102.47;999.90;;;25.70;79.40;;;;;;4987336;28;20469;-81
2022/08/08 08:42:49;;;;;;;1105.53;999.90;;;25.70;79.50;;;;;;4992973;28;20472;-79
2022/08/08 08:45:16;;;;;;;1120.77;999.90;;;25.80;79.50;;;;;;4993562;28;20476;-80
2022/08/08 08:47:44;;;;;;;1096.97;999.40;;;25.80;79.50;;;;;;4991656;28;20467;-79
2022/08/08 08:50:10;;;;;;;1103.70;999.90;;;25.80;79.50;;;;;;4991835;28;20641;-81
2022/08/08 08:52:42;;;;;;;1103.93;999.90;;;25.80;79.50;;;;;;4987434;28;20475;-80
2022/08/08 08:55:14;;;;;;;1108.80;999.90;;;25.80;79.40;;;;;;4994130;28;20524;-83
2022/08/08 08:57:43;;;;;;;1105.40;999.90;;;25.90;79.60;;;;;;4992050;28;20527;-83
2022/08/08 09:00:11;;;;;;;1115.20;999.90;;;25.80;79.50;;;;;;4991437;28;20652;-84
2022/08/08 09:02:39;;;;;;;1101.43;999.90;;;25.90;79.30;;;;;;4985830;28;20426;-82
2022/08/08 09:05:07;;;;;;;1212.20;999.90;;;25.90;78.30;;;;;;4992202;28;20806;-84
2022/08/08 09:07:35;;;;;;;1116.07;999.90;;;25.80;78.70;;;;;;4994536;28;20937;-83
2022/08/08 09:10:03;;;;;;;1102.70;999.90;;;25.80;78.50;;;;;;4987148;28;20435;-88
2022/08/08 09:12:33;;;;;;;1097.13;999.40;;;25.90;76.80;;;;;;4990331;28;20488;-83
2022/08/08 09:15:00;;;;;;;1096.77;999.10;;;25.90;77.90;;;;;;4997182;28;20458;-85
2022/08/08 09:17:27;;;;;;;1080.67;990.57;;;25.80;77.80;;;;;;4983092;28;20460;-83
2022/08/08 09:19:57;;;;;;;1106.20;999.90;;;25.70;78.10;;;;;;4989770;28;20911;-85
2022/08/08 09:22:24;;;;;;;1097.13;999.50;;;25.70;78.20;;;;;;4989546;28;20456;-82
2022/08/08 09:24:53;;;;;;;1103.33;999.90;;;25.70;78.50;;;;;;4993182;28;20460;-85
2022/08/08 09:27:21;;;;;;;1097.87;999.10;;;25.70;78.40;;;;;;4989120;28;20483;-85
2022/08/08 09:29:53;;;;;;;1109.90;999.90;;;25.70;78.60;;;;;;4984997;28;20441;-82
2022/08/08 09:32:35;;;;;;;1093.13;998.20;;;25.70;78.50;;;;;;4989666;28;20463;-85
2022/08/08 09:35:03;;;;;;;1092.60;998.13;;;25.70;78.70;;;;;;4989088;28;20514;-86
2022/08/08 09:37:37;;;;;;;1086.13;994.30;;;25.70;78.50;;;;;;4986397;28;20458;-83
2022/08/08 09:40:06;;;;;;;1111.83;999.90;;;25.70;79.20;;;;;;4987331;28;20962;-85
2022/08/08 09:42:35;;;;;;;1101.50;999.90;;;25.70;79.20;;;;;;4987086;28;20465;-84
2022/08/08 09:45:08;;;;;;;1100.37;999.90;;;25.70;79.10;;;;;;4989251;28;20823;-84
2022/08/08 09:47:37;;;;;;;1115.23;999.90;;;25.60;78.70;;;;;;5000931;28;20971;-83
2022/08/08 09:50:07;;;;;;;1108.63;999.90;;;25.60;78.80;;;;;;4980656;28;20460;-85
2022/08/08 09:52:35;;;;;;;1101.70;999.90;;;25.60;78.90;;;;;;4986618;28;20979;-84
2022/08/08 09:55:03;;;;;;;1107.20;999.90;;;25.60;79.20;;;;;;4997639;28;20468;-84
2022/08/08 09:57:34;;;;;;;1106.23;999.90;;;25.50;79.30;;;;;;4992594;28;20941;-84
2022/08/08 10:00:03;;;;;;;1108.60;999.90;;;25.50;78.60;;;;;;4989530;28;20514;-83
2022/08/08 10:02:36;;;;;;;1088.40;995.67;;;25.50;79.40;;;;;;5000971;28;20500;-83
2022/08/08 10:05:05;;;;;;;1106.47;999.90;;;25.50;78.70;;;;;;4990665;28;20522;-83
2022/08/08 10:07:32;;;;;;;1097.73;999.57;;;25.50;78.50;;;;;;4990509;28;20471;-83
2022/08/08 10:09:59;;;;;;;1109.53;999.90;;;25.50;78.60;;;;;;4985584;28;20947;-85
2022/08/08 10:12:34;;;;;;;1099.37;999.90;;;25.40;79.20;;;;;;4983325;28;20443;-87
2022/08/08 10:15:02;;;;;;;1104.40;999.90;;;25.40;79.60;;;;;;4988701;28;20525;-84
2022/08/08 10:17:31;;;;;;;1100.67;999.90;;;25.30;79.20;;;;;;4989363;28;20973;-86
2022/08/08 10:20:00;;;;;;;1092.63;997.93;;;25.30;79.50;;;;;;5000351;28;20503;-84
2022/08/08 10:22:28;;;;;;;1100.20;999.90;;;25.30;79.30;;;;;;4999828;28;20483;-84
2022/08/08 10:25:00;;;;;;;1090.10;997.07;;;25.30;80.00;;;;;;4991284;28;20947;-85
2022/08/08 10:27:28;;;;;;;1093.70;998.47;;;25.30;78.90;;;;;;4987790;28;20474;-85
2022/08/08 10:30:00;;;;;;;1094.40;998.53;;;25.30;79.50;;;;;;4984725;28;21001;-84
2022/08/08 10:32:34;;;;;;;1100.43;999.90;;;25.30;79.20;;;;;;4986763;28;20430;-86
2022/08/08 10:35:07;;;;;;;1084.97;994.37;;;25.30;79.50;;;;;;4994437;28;20434;-84
2022/08/08 10:37:35;;;;;;;1087.07;994.97;;;25.20;79.60;;;;;;4988804;28;20443;-85
2022/08/08 10:40:13;;;;;;;1094.87;998.27;;;25.20;79.30;;;;;;4992629;28;20816;-84
2022/08/08 10:42:41;;;;;;;1080.07;989.67;;;25.20;79.30;;;;;;4987054;28;20456;-84
2022/08/08 10:45:09;;;;;;;1079.37;989.10;;;25.10;79.20;;;;;;4987145;28;20452;-84
2022/08/08 10:47:37;;;;;;;1078.43;988.33;;;25.10;79.80;;;;;;4988422;28;20484;-84
2022/08/08 10:50:07;;;;;;;1086.17;994.63;;;25.10;79.70;;;;;;4985065;28;20514;-84
2022/08/08 10:52:36;;;;;;;1073.83;983.57;;;25.10;80.30;;;;;;4982955;28;20464;-83
2022/08/08 10:55:07;;;;;;;1074.50;984.40;;;25.10;79.40;;;;;;4980204;28;20456;-83
2022/08/08 10:57:40;;;;;;;1082.32;991.40;;;25.10;79.00;;;;;;4993318;28;20459;-84
2022/08/08 11:00:11;;;;;;;1079.70;989.43;;;25.10;79.30;;;;;;4991506;28;20353;-83
2022/08/08 11:02:38;;;;;;;1072.57;982.75;;;25.10;78.90;;;;;;4977095;28;20450;-84
2022/08/08 11:05:10;;;;;;;1080.73;990.33;;;25.10;79.80;;;;;;4988301;28;20700;-84
2022/08/08 11:07:38;;;;;;;1078.23;987.83;;;25.10;79.90;;;;;;4990145;28;20461;-83
2022/08/08 11:10:07;;;;;;;1080.50;990.43;;;25.10;79.90;;;;;;4994364;28;20463;-82
2022/08/08 11:12:44;;;;;;;1081.53;991.23;;;25.10;79.70;;;;;;4989295;28;20438;-81
2022/08/08 11:15:13;;;;;;;1072.72;982.63;;;25.10;79.40;;;;;;4989967;28;20456;-82
2022/08/08 11:17:41;;;;;;;1080.00;989.80;;;25.00;79.70;;;;;;4988260;28;20192;-83
2022/08/08 11:20:11;;;;;;;1089.25;996.38;;;25.00;79.70;;;;;;4982565;28;20545;-81
2022/08/08 11:22:39;;;;;;;1085.73;994.53;;;25.10;80.00;;;;;;4987077;28;20284;-85
2022/08/08 11:25:07;;;;;;;1073.10;983.05;;;25.00;80.10;;;;;;4992051;28;21009;-80
2022/08/08 11:27:36;;;;;;;1071.07;981.22;;;25.10;79.70;;;;;;4984838;28;20267;-84
2022/08/08 11:30:07;;;;;;;1074.35;984.40;;;25.10;80.30;;;;;;4984114;28;20205;-82
2022/08/08 11:32:38;;;;;;;1086.35;994.63;;;25.00;80.20;;;;;;4988848;28;20200;-83
2022/08/08 11:35:07;;;;;;;1075.63;985.58;;;25.00;80.10;;;;;;4992798;28;20233;-84
2022/08/08 11:37:37;;;;;;;1071.43;981.37;;;25.00;80.20;;;;;;4988984;28;20193;-82
2022/08/08 11:40:06;;;;;;;1071.53;981.53;;;25.00;80.10;;;;;;4978642;28;20460;-82
2022/08/08 11:42:33;;;;;;;1070.97;981.13;;;25.00;80.00;;;;;;4989077;28;20466;-82
2022/08/08 11:45:01;;;;;;;1074.13;984.13;;;25.00;79.90;;;;;;5011374;28;20931;-82
2022/08/08 11:47:29;;;;;;;1069.75;979.65;;;25.00;79.60;;;;;;4991747;28;20965;-84
2022/08/08 11:49:58;;;;;;;1067.45;977.30;;;25.00;80.00;;;;;;4987474;28;20201;-83
2022/08/08 11:52:25;;;;;;;1074.13;984.23;;;25.00;80.10;;;;;;4986439;28;20197;-83
2022/08/08 11:54:54;;;;;;;1086.57;994.63;;;25.00;80.00;;;;;;4995881;28;20470;-83
2022/08/08 11:57:22;;;;;;;1075.32;985.28;;;25.00;80.30;;;;;;5000502;28;20193;-83
2022/08/08 11:59:54;;;;;;;1074.75;984.83;;;25.00;80.20;;;;;;4996502;28;20575;-81
2022/08/08 12:02:22;;;;;;;1074.17;984.10;;;24.90;80.00;;;;;;5002416;28;20655;-83
2022/08/08 12:04:50;;;;;;;1069.43;979.43;;;24.90;80.20;;;;;;4996232;28;20446;-83
2022/08/08 12:07:17;;;;;;;1073.30;982.88;;;24.90;80.20;;;;;;5003380;28;21093;-83
2022/08/08 12:09:44;;;;;;;1064.88;975.35;;;24.90;79.90;;;;;;5006428;28;20204;-82
2022/08/08 12:12:22;;;;;;;1070.90;981.15;;;24.90;80.20;;;;;;4998602;28;20216;-82
2022/08/08 12:15:00;;;;;;;1058.97;969.40;;;24.90;80.00;;;;;;5004088;28;20202;-83
2022/08/08 12:17:36;;;;;;;1068.18;978.65;;;24.80;79.60;;;;;;5006164;28;20454;-83
2022/08/08 12:20:04;;;;;;;1070.03;980.17;;;24.80;79.70;;;;;;5008506;28;20311;-82
2022/08/08 12:22:32;;;;;;;1075.03;985.00;;;24.80;79.80;;;;;;5005494;28;20672;-83
2022/08/08 12:24:59;;;;;;;1073.95;983.97;;;24.80;79.80;;;;;;5007322;28;20542;-82
2022/08/08 12:27:36;;;;;;;1074.38;984.22;;;24.80;80.00;;;;;;5006677;28;20217;-82
2022/08/08 12:30:04;;;;;;;1078.35;988.28;;;24.80;80.40;;;;;;5009313;28;20812;-83
2022/08/08 12:32:41;;;;;;;1082.20;991.75;;;24.80;80.10;;;;;;5008876;28;20663;-82
2022/08/08 12:35:17;;;;;;;1062.53;972.95;;;24.80;80.10;;;;;;5005861;28;20215;-82
2022/08/08 12:37:45;;;;;;;1066.90;977.33;;;24.80;80.10;;;;;;5010701;28;20193;-83
2022/08/08 12:40:14;;;;;;;1070.78;980.92;;;24.80;80.30;;;;;;5008889;28;20197;-85
2022/08/08 12:42:45;;;;;;;1064.95;975.58;;;24.80;80.20;;;;;;4998448;28;20192;-82